Canton, KS

11:39 AM CDT on August 22, 2014 (GMT -0500)
CPS Galva | Change Station
CLOSE
Current Station
Personal Weather Station
Location: Galva, KS
Elevation: 1493 ft
Nearby Weather Stations

Elev 1493 ft 38.27 °N, 97.52 °W | Updated 5 seconds ago

Overcast
Overcast
85.9 °F
Feels Like 88 °F
N
15.0
Wind Variable Wind from SSW
Gusts 23.0 mph

Today
High -- | Low -- °F
--% Chance of Precip.
Yesterday
High -- | Low -- °F
Precip. -- in
6:50 AM 8:14 PM
Waning Crescent, 7% visible
Pressure 29.97 in
Visibility 10.0 miles
Clouds Few 10000 ft
Heat Index 88 °F
Dew Point 66 °F
Humidity 52%
Rainfall 0.00 in
Snow Depth Not available.
UV 8 out of 12
Pollen 11.20 out of 12
Air Quality Not available.
Flu Activity Not available.
METAR KEWK 221635Z AUTO 23012G19KT 10SM TS FEW100 33/18 A2997 RMK AO1 TSB14

More Conditions Fewer Conditions

Pressure 29.97 in
Visibility 10.0 miles
Clouds Few 10000 ft
Heat Index 88 °F
Dew Point 66 °F
Humidity 52%
Rainfall 0.00 in
Snow Depth Not available.
UV 8 out of 12
Pollen 11.20 out of 12
Air Quality Not available.
Flu Activity Not available.
METAR KEWK 221635Z AUTO 23012G19KT 10SM TS FEW100 33/18 A2997 RMK AO1 TSB14

More Conditions Fewer Conditions

10-Day Weather Forecast

Almanac

Astronomy

Aug. 22, 2014 Rise Set
Actual Time 6:50 AM CDT 8:14 PM CDT
Civil Twilight 6:22 AM CDT 8:41 PM CDT
Nautical Twilight 5:49 AM CDT 9:14 PM CDT
Astronomical Twilight 5:14 AM CDT 9:49 PM CDT
Moon 4:15 AM CDT 6:22 PM CDT
Length of Visible Light 14h 19m
Length of Day
13h 23m
Tomorrow will be 2m 18s shorter.
Waning Crescent, 7% of the Moon is Illuminated
Today
Waning Crescent
Aug 25
New
Sep 2
First Quarter
Sep 8
Full
Sep 15
Last Quarter

Today's Extremes

State Highs State Lows

Community

WunderPhotos

Upload Photos

1,746,195 photos uploaded!

Nearby

Snow Depth

Station Depth Elevation
No new snow has been reported.

Earthquake Activity

City Distance Mag. Time & Date
Cherokee, Oklahoma 116 miles 3.8 8:25 PM CDT
2014-08-17
Medford, Oklahoma 108 miles 2.9 6:30 PM CDT
2014-08-17
Cherokee, Oklahoma 124 miles 2.6 11:50 AM CDT
2014-08-17
Medford, Oklahoma 108 miles 3.1 11:35 AM CDT
2014-08-17
Minimum magnitude displayed is 2.5.

Coastal Water Temperatures

Place Temperature
No Stations Reporting

Nearby Weather Stations